Terminal Aerodrome Forecast
Issued by NWS Charleston, WV

Current Version | Previous Version | Text Only | Print | Product List | Glossary Off
Versions: 1 2 3 4 5 6 7 8 9 10 11 12 13 14 15 16 17 18 19 20 21 22 23 24 25 26 27 28

000
FTUS41 KRLX 121400 AAA
TAFEKN
TAF AMD
KEKN 121456Z 1215/1312 36005KT P6SM OVC012
     FM121600 00000KT P6SM BKN015
     FM122100 VRB03KT P6SM BKN025
     FM130300 00000KT P6SM BKN250
     FM130600 00000KT 6SM BR BKN070
     FM131100 00000KT 5SM SHRA BR OVC030=

USA.gov is the U.S. government's official web portal to all federal, state and local government web resources and services.